sensor_id;sensor_type;location;lat;lon;timestamp;temperature;humidity
69162;DHT22;56269;51.738;21.652;2023-05-24T00:01:48;15.88;68.54
69162;DHT22;56269;51.738;21.652;2023-05-24T00:04:14;15.88;68.51
69162;DHT22;56269;51.738;21.652;2023-05-24T00:06:42;15.81;69.99
69162;DHT22;56269;51.738;21.652;2023-05-24T00:09:10;15.92;68.77
69162;DHT22;56269;51.738;21.652;2023-05-24T00:11:39;15.77;70.32
69162;DHT22;56269;51.738;21.652;2023-05-24T00:14:05;15.66;69.61
69162;DHT22;56269;51.738;21.652;2023-05-24T00:16:31;15.77;68.88
69162;DHT22;56269;51.738;21.652;2023-05-24T00:18:58;16.03;67.72
69162;DHT22;56269;51.738;21.652;2023-05-24T00:21:24;15.83;69.71
69162;DHT22;56269;51.738;21.652;2023-05-24T00:23:50;15.68;69.87
69162;DHT22;56269;51.738;21.652;2023-05-24T00:26:16;15.69;69.02
69162;DHT22;56269;51.738;21.652;2023-05-24T00:28:43;15.89;68.24
69162;DHT22;56269;51.738;21.652;2023-05-24T00:31:09;15.73;70.23
69162;DHT22;56269;51.738;21.652;2023-05-24T00:33:35;15.62;69.90
69162;DHT22;56269;51.738;21.652;2023-05-24T00:36:01;15.78;69.49
69162;DHT22;56269;51.738;21.652;2023-05-24T00:38:27;15.52;70.06
69162;DHT22;56269;51.738;21.652;2023-05-24T00:40:54;15.40;70.85
69162;DHT22;56269;51.738;21.652;2023-05-24T00:43:24;15.21;72.58
69162;DHT22;56269;51.738;21.652;2023-05-24T00:48:39;15.07;71.37
69162;DHT22;56269;51.738;21.652;2023-05-24T00:51:05;15.08;70.60
69162;DHT22;56269;51.738;21.652;2023-05-24T00:53:32;15.08;71.09
69162;DHT22;56269;51.738;21.652;2023-05-24T00:56:01;15.20;71.14
69162;DHT22;56269;51.738;21.652;2023-05-24T00:58:29;15.08;72.95
69162;DHT22;56269;51.738;21.652;2023-05-24T01:01:00;15.01;72.26
69162;DHT22;56269;51.738;21.652;2023-05-24T01:03:28;14.72;74.37
69162;DHT22;56269;51.738;21.652;2023-05-24T01:05:58;14.86;72.26
69162;DHT22;56269;51.738;21.652;2023-05-24T01:08:41;14.70;73.15
69162;DHT22;56269;51.738;21.652;2023-05-24T01:11:20;14.84;75.57
69162;DHT22;56269;51.738;21.652;2023-05-24T01:16:55;14.40;74.54
69162;DHT22;56269;51.738;21.652;2023-05-24T01:22:23;14.66;72.62
69162;DHT22;56269;51.738;21.652;2023-05-24T01:27:22;14.55;74.61
69162;DHT22;56269;51.738;21.652;2023-05-24T01:29:49;14.63;72.27
69162;DHT22;56269;51.738;21.652;2023-05-24T01:32:21;14.50;74.72
69162;DHT22;56269;51.738;21.652;2023-05-24T01:34:47;14.36;74.97
69162;DHT22;56269;51.738;21.652;2023-05-24T01:37:13;14.35;73.47
69162;DHT22;56269;51.738;21.652;2023-05-24T01:39:40;14.32;73.49
69162;DHT22;56269;51.738;21.652;2023-05-24T01:42:15;14.39;73.90
69162;DHT22;56269;51.738;21.652;2023-05-24T01:45:24;14.35;74.10
69162;DHT22;56269;51.738;21.652;2023-05-24T01:48:11;14.48;73.25
69162;DHT22;56269;51.738;21.652;2023-05-24T01:51:00;14.48;74.35
69162;DHT22;56269;51.738;21.652;2023-05-24T01:53:32;14.22;74.94
69162;DHT22;56269;51.738;21.652;2023-05-24T01:56:01;14.05;75.06
69162;DHT22;56269;51.738;21.652;2023-05-24T01:58:29;14.14;74.84
69162;DHT22;56269;51.738;21.652;2023-05-24T02:00:59;13.94;77.15
69162;DHT22;56269;51.738;21.652;2023-05-24T02:03:25;13.61;78.47
69162;DHT22;56269;51.738;21.652;2023-05-24T02:05:51;13.64;77.07
69162;DHT22;56269;51.738;21.652;2023-05-24T02:08:17;13.60;77.50
69162;DHT22;56269;51.738;21.652;2023-05-24T02:10:44;13.53;77.31
69162;DHT22;56269;51.738;21.652;2023-05-24T02:13:10;13.37;80.59
69162;DHT22;56269;51.738;21.652;2023-05-24T02:15:36;13.20;79.42
69162;DHT22;56269;51.738;21.652;2023-05-24T02:18:02;13.09;80.18
69162;DHT22;56269;51.738;21.652;2023-05-24T02:20:29;12.96;82.69
69162;DHT22;56269;51.738;21.652;2023-05-24T02:22:56;12.88;84.39
69162;DHT22;56269;51.738;21.652;2023-05-24T02:25:23;12.82;82.45
69162;DHT22;56269;51.738;21.652;2023-05-24T02:27:49;12.99;78.66
69162;DHT22;56269;51.738;21.652;2023-05-24T02:30:19;12.99;82.12
69162;DHT22;56269;51.738;21.652;2023-05-24T02:32:45;13.10;79.36
69162;DHT22;56269;51.738;21.652;2023-05-24T02:35:12;12.99;81.34
69162;DHT22;56269;51.738;21.652;2023-05-24T02:37:38;12.99;81.40
69162;DHT22;56269;51.738;21.652;2023-05-24T02:40:05;13.03;82.18
69162;DHT22;56269;51.738;21.652;2023-05-24T02:42:31;13.32;77.42
69162;DHT22;56269;51.738;21.652;2023-05-24T02:44:57;13.24;81.73
69162;DHT22;56269;51.738;21.652;2023-05-24T02:47:23;13.30;80.30
69162;DHT22;56269;51.738;21.652;2023-05-24T02:49:52;13.27;83.09
69162;DHT22;56269;51.738;21.652;2023-05-24T02:52:19;13.28;83.10
69162;DHT22;56269;51.738;21.652;2023-05-24T02:54:50;13.09;82.29
69162;DHT22;56269;51.738;21.652;2023-05-24T02:57:18;13.23;79.81
69162;DHT22;56269;51.738;21.652;2023-05-24T02:59:44;13.07;83.07
69162;DHT22;56269;51.738;21.652;2023-05-24T03:02:11;13.12;82.00
69162;DHT22;56269;51.738;21.652;2023-05-24T03:04:40;13.46;80.86
69162;DHT22;56269;51.738;21.652;2023-05-24T03:07:06;13.30;80.73
69162;DHT22;56269;51.738;21.652;2023-05-24T03:09:32;13.36;80.49
69162;DHT22;56269;51.738;21.652;2023-05-24T03:11:58;13.47;82.59
69162;DHT22;56269;51.738;21.652;2023-05-24T03:14:25;13.50;80.41
69162;DHT22;56269;51.738;21.652;2023-05-24T03:16:51;13.56;81.20
69162;DHT22;56269;51.738;21.652;2023-05-24T03:19:17;13.78;78.76
69162;DHT22;56269;51.738;21.652;2023-05-24T03:21:43;13.81;79.08
69162;DHT22;56269;51.738;21.652;2023-05-24T03:24:09;13.91;77.74
69162;DHT22;56269;51.738;21.652;2023-05-24T03:26:39;14.12;77.34
69162;DHT22;56269;51.738;21.652;2023-05-24T03:29:05;14.22;77.69
69162;DHT22;56269;51.738;21.652;2023-05-24T03:31:31;14.30;76.28
69162;DHT22;56269;51.738;21.652;2023-05-24T03:33:58;14.52;75.97
69162;DHT22;56269;51.738;21.652;2023-05-24T03:36:24;14.77;76.52
69162;DHT22;56269;51.738;21.652;2023-05-24T03:38:51;15.27;72.63
69162;DHT22;56269;51.738;21.652;2023-05-24T03:41:17;15.12;74.26
69162;DHT22;56269;51.738;21.652;2023-05-24T03:43:43;15.19;73.88
69162;DHT22;56269;51.738;21.652;2023-05-24T03:46:09;15.21;72.96
69162;DHT22;56269;51.738;21.652;2023-05-24T03:48:36;15.26;72.93
69162;DHT22;56269;51.738;21.652;2023-05-24T03:51:02;15.35;72.38
69162;DHT22;56269;51.738;21.652;2023-05-24T03:53:28;15.42;73.01
69162;DHT22;56269;51.738;21.652;2023-05-24T03:55:54;15.51;72.25
69162;DHT22;56269;51.738;21.652;2023-05-24T03:58:21;15.50;73.87
69162;DHT22;56269;51.738;21.652;2023-05-24T04:00:47;15.59;71.71
69162;DHT22;56269;51.738;21.652;2023-05-24T04:03:13;15.52;72.15
69162;DHT22;56269;51.738;21.652;2023-05-24T04:05:39;15.65;71.53
69162;DHT22;56269;51.738;21.652;2023-05-24T04:08:05;15.69;73.00
69162;DHT22;56269;51.738;21.652;2023-05-24T04:10:32;15.68;72.69
69162;DHT22;56269;51.738;21.652;2023-05-24T04:12:58;15.71;73.17
69162;DHT22;56269;51.738;21.652;2023-05-24T04:15:25;15.73;72.84
69162;DHT22;56269;51.738;21.652;2023-05-24T04:17:51;15.78;72.18
69162;DHT22;56269;51.738;21.652;2023-05-24T04:20:20;15.86;72.09
69162;DHT22;56269;51.738;21.652;2023-05-24T04:22:50;15.78;73.24
69162;DHT22;56269;51.738;21.652;2023-05-24T04:25:17;16.09;71.30
69162;DHT22;56269;51.738;21.652;2023-05-24T04:27:43;16.22;71.65
69162;DHT22;56269;51.738;21.652;2023-05-24T04:30:10;16.20;71.08
69162;DHT22;56269;51.738;21.652;2023-05-24T04:32:37;16.34;71.15
69162;DHT22;56269;51.738;21.652;2023-05-24T04:35:05;16.43;71.27
69162;DHT22;56269;51.738;21.652;2023-05-24T04:37:33;16.67;69.72
69162;DHT22;56269;51.738;21.652;2023-05-24T04:39:59;16.84;69.32
69162;DHT22;56269;51.738;21.652;2023-05-24T04:42:25;17.01;68.81
69162;DHT22;56269;51.738;21.652;2023-05-24T04:44:57;17.18;67.39
69162;DHT22;56269;51.738;21.652;2023-05-24T04:47:25;17.65;66.48
69162;DHT22;56269;51.738;21.652;2023-05-24T04:49:51;17.49;65.89
69162;DHT22;56269;51.738;21.652;2023-05-24T04:52:18;18.01;66.65
69162;DHT22;56269;51.738;21.652;2023-05-24T04:54:44;18.65;64.52
69162;DHT22;56269;51.738;21.652;2023-05-24T04:57:11;18.75;63.91
69162;DHT22;56269;51.738;21.652;2023-05-24T04:59:37;18.75;62.75
69162;DHT22;56269;51.738;21.652;2023-05-24T05:02:03;19.03;62.44
69162;DHT22;56269;51.738;21.652;2023-05-24T05:04:30;19.24;61.61
69162;DHT22;56269;51.738;21.652;2023-05-24T05:06:56;18.75;62.92
69162;DHT22;56269;51.738;21.652;2023-05-24T05:09:22;18.33;64.49
69162;DHT22;56269;51.738;21.652;2023-05-24T05:11:49;18.71;64.27
69162;DHT22;56269;51.738;21.652;2023-05-24T05:14:16;18.69;64.29
69162;DHT22;56269;51.738;21.652;2023-05-24T05:16:42;18.65;63.73
69162;DHT22;56269;51.738;21.652;2023-05-24T05:19:09;19.29;62.84
69162;DHT22;56269;51.738;21.652;2023-05-24T05:21:35;19.27;62.84
69162;DHT22;56269;51.738;21.652;2023-05-24T05:24:04;19.37;61.25
69162;DHT22;56269;51.738;21.652;2023-05-24T05:26:31;19.53;62.45
69162;DHT22;56269;51.738;21.652;2023-05-24T05:28:57;19.61;62.69
69162;DHT22;56269;51.738;21.652;2023-05-24T05:31:24;19.40;61.45
69162;DHT22;56269;51.738;21.652;2023-05-24T05:33:50;19.71;62.05
69162;DHT22;56269;51.738;21.652;2023-05-24T05:36:17;19.57;61.75
69162;DHT22;56269;51.738;21.652;2023-05-24T05:38:43;20.01;62.43
69162;DHT22;56269;51.738;21.652;2023-05-24T05:41:10;20.12;61.20
69162;DHT22;56269;51.738;21.652;2023-05-24T05:43:37;19.95;60.91
69162;DHT22;56269;51.738;21.652;2023-05-24T05:46:03;19.77;60.82
69162;DHT22;56269;51.738;21.652;2023-05-24T05:48:29;19.75;60.55
69162;DHT22;56269;51.738;21.652;2023-05-24T05:50:56;19.94;61.10
69162;DHT22;56269;51.738;21.652;2023-05-24T05:53:22;20.12;59.65
69162;DHT22;56269;51.738;21.652;2023-05-24T05:55:48;20.04;60.80
69162;DHT22;56269;51.738;21.652;2023-05-24T05:58:14;20.29;60.83
69162;DHT22;56269;51.738;21.652;2023-05-24T06:00:41;20.41;61.03
69162;DHT22;56269;51.738;21.652;2023-05-24T06:03:07;20.79;60.90
69162;DHT22;56269;51.738;21.652;2023-05-24T06:05:33;20.86;59.85
69162;DHT22;56269;51.738;21.652;2023-05-24T06:07:59;20.69;58.56
69162;DHT22;56269;51.738;21.652;2023-05-24T06:10:26;20.17;60.32
69162;DHT22;56269;51.738;21.652;2023-05-24T06:12:52;20.17;59.66
69162;DHT22;56269;51.738;21.652;2023-05-24T06:15:18;20.15;59.63
69162;DHT22;56269;51.738;21.652;2023-05-24T06:17:49;20.50;60.11
69162;DHT22;56269;51.738;21.652;2023-05-24T06:20:16;20.76;57.12
69162;DHT22;56269;51.738;21.652;2023-05-24T06:22:42;21.40;58.43
69162;DHT22;56269;51.738;21.652;2023-05-24T06:25:10;21.61;58.65
69162;DHT22;56269;51.738;21.652;2023-05-24T06:27:40;21.42;56.39
69162;DHT22;56269;51.738;21.652;2023-05-24T06:30:07;20.70;59.47
69162;DHT22;56269;51.738;21.652;2023-05-24T06:32:33;20.52;59.07
69162;DHT22;56269;51.738;21.652;2023-05-24T06:34:59;21.41;58.65
69162;DHT22;56269;51.738;21.652;2023-05-24T06:37:26;21.34;57.34
69162;DHT22;56269;51.738;21.652;2023-05-24T06:39:56;20.96;58.40
69162;DHT22;56269;51.738;21.652;2023-05-24T06:42:22;20.56;58.44
69162;DHT22;56269;51.738;21.652;2023-05-24T06:44:48;20.69;61.12
69162;DHT22;56269;51.738;21.652;2023-05-24T06:47:14;21.35;59.99
69162;DHT22;56269;51.738;21.652;2023-05-24T06:49:40;21.92;58.41
69162;DHT22;56269;51.738;21.652;2023-05-24T06:52:07;21.64;58.33
69162;DHT22;56269;51.738;21.652;2023-05-24T06:54:34;21.62;58.66
69162;DHT22;56269;51.738;21.652;2023-05-24T06:57:00;21.95;60.19
69162;DHT22;56269;51.738;21.652;2023-05-24T06:59:26;22.60;56.12
69162;DHT22;56269;51.738;21.652;2023-05-24T07:01:52;23.18;58.11
69162;DHT22;56269;51.738;21.652;2023-05-24T07:04:23;23.77;55.93
69162;DHT22;56269;51.738;21.652;2023-05-24T07:06:50;23.26;55.75
69162;DHT22;56269;51.738;21.652;2023-05-24T07:09:18;22.73;55.55
69162;DHT22;56269;51.738;21.652;2023-05-24T07:11:44;22.73;57.30
69162;DHT22;56269;51.738;21.652;2023-05-24T07:14:10;22.94;55.76
69162;DHT22;56269;51.738;21.652;2023-05-24T07:16:37;22.33;55.99
69162;DHT22;56269;51.738;21.652;2023-05-24T07:19:03;22.76;56.69
69162;DHT22;56269;51.738;21.652;2023-05-24T07:21:29;22.80;56.91
69162;DHT22;56269;51.738;21.652;2023-05-24T07:23:56;23.42;57.72
69162;DHT22;56269;51.738;21.652;2023-05-24T07:26:22;24.12;55.98
69162;DHT22;56269;51.738;21.652;2023-05-24T07:28:49;23.59;55.71
69162;DHT22;56269;51.738;21.652;2023-05-24T07:31:15;23.70;54.51
69162;DHT22;56269;51.738;21.652;2023-05-24T07:33:42;24.28;54.76
69162;DHT22;56269;51.738;21.652;2023-05-24T07:36:08;23.80;56.18
69162;DHT22;56269;51.738;21.652;2023-05-24T07:38:34;23.03;56.37
69162;DHT22;56269;51.738;21.652;2023-05-24T07:41:01;23.19;57.19
69162;DHT22;56269;51.738;21.652;2023-05-24T07:43:31;23.56;56.54
69162;DHT22;56269;51.738;21.652;2023-05-24T07:45:57;23.32;58.10
69162;DHT22;56269;51.738;21.652;2023-05-24T07:48:24;23.26;58.71
69162;DHT22;56269;51.738;21.652;2023-05-24T07:50:50;24.03;56.94
69162;DHT22;56269;51.738;21.652;2023-05-24T07:53:18;24.54;55.78
69162;DHT22;56269;51.738;21.652;2023-05-24T07:55:45;24.71;56.19
69162;DHT22;56269;51.738;21.652;2023-05-24T07:58:11;24.51;54.42
69162;DHT22;56269;51.738;21.652;2023-05-24T08:00:38;24.87;55.65
69162;DHT22;56269;51.738;21.652;2023-05-24T08:03:05;24.75;53.52
69162;DHT22;56269;51.738;21.652;2023-05-24T08:05:31;25.28;54.88
69162;DHT22;56269;51.738;21.652;2023-05-24T08:07:57;24.91;54.54
69162;DHT22;56269;51.738;21.652;2023-05-24T08:10:23;25.36;53.56
69162;DHT22;56269;51.738;21.652;2023-05-24T08:12:50;25.69;53.63
69162;DHT22;56269;51.738;21.652;2023-05-24T08:15:19;26.04;54.81
69162;DHT22;56269;51.738;21.652;2023-05-24T08:17:47;25.54;56.31
69162;DHT22;56269;51.738;21.652;2023-05-24T08:20:13;25.60;54.96
69162;DHT22;56269;51.738;21.652;2023-05-24T08:22:41;25.89;55.36
69162;DHT22;56269;51.738;21.652;2023-05-24T08:25:08;25.62;53.74
69162;DHT22;56269;51.738;21.652;2023-05-24T08:27:34;25.46;55.57
69162;DHT22;56269;51.738;21.652;2023-05-24T08:30:01;25.45;54.25
69162;DHT22;56269;51.738;21.652;2023-05-24T08:32:29;25.45;54.15
69162;DHT22;56269;51.738;21.652;2023-05-24T08:34:55;25.35;53.91
69162;DHT22;56269;51.738;21.652;2023-05-24T08:37:22;25.26;55.43
69162;DHT22;56269;51.738;21.652;2023-05-24T08:39:48;25.02;54.32
69162;DHT22;56269;51.738;21.652;2023-05-24T08:42:15;25.25;57.20
69162;DHT22;56269;51.738;21.652;2023-05-24T08:44:58;25.08;55.46
69162;DHT22;56269;51.738;21.652;2023-05-24T08:47:29;25.33;57.90
69162;DHT22;56269;51.738;21.652;2023-05-24T08:49:56;25.80;55.54
69162;DHT22;56269;51.738;21.652;2023-05-24T08:52:23;25.80;54.79
69162;DHT22;56269;51.738;21.652;2023-05-24T08:54:50;25.62;54.42
69162;DHT22;56269;51.738;21.652;2023-05-24T08:57:18;25.76;53.98
69162;DHT22;56269;51.738;21.652;2023-05-24T08:59:44;26.00;54.31
69162;DHT22;56269;51.738;21.652;2023-05-24T09:02:13;26.04;55.40
69162;DHT22;56269;51.738;21.652;2023-05-24T09:04:40;26.35;55.47
69162;DHT22;56269;51.738;21.652;2023-05-24T09:07:11;26.63;54.82
69162;DHT22;56269;51.738;21.652;2023-05-24T09:09:41;26.11;54.84
69162;DHT22;56269;51.738;21.652;2023-05-24T09:12:14;26.35;54.13
69162;DHT22;56269;51.738;21.652;2023-05-24T09:14:45;26.51;53.33
69162;DHT22;56269;51.738;21.652;2023-05-24T09:17:12;26.82;54.10
69162;DHT22;56269;51.738;21.652;2023-05-24T09:19:48;26.47;54.41
69162;DHT22;56269;51.738;21.652;2023-05-24T09:22:15;26.47;55.63
69162;DHT22;56269;51.738;21.652;2023-05-24T09:24:48;26.52;54.07
69162;DHT22;56269;51.738;21.652;2023-05-24T09:27:16;26.37;52.12
69162;DHT22;56269;51.738;21.652;2023-05-24T09:29:43;26.62;52.35
69162;DHT22;56269;51.738;21.652;2023-05-24T09:32:11;27.30;52.64
69162;DHT22;56269;51.738;21.652;2023-05-24T09:34:40;26.95;52.96
69162;DHT22;56269;51.738;21.652;2023-05-24T09:37:17;27.32;53.30
69162;DHT22;56269;51.738;21.652;2023-05-24T09:39:45;27.30;51.31
69162;DHT22;56269;51.738;21.652;2023-05-24T09:42:18;27.64;52.09
69162;DHT22;56269;51.738;21.652;2023-05-24T09:44:46;27.81;50.91
69162;DHT22;56269;51.738;21.652;2023-05-24T09:47:14;27.63;50.80
69162;DHT22;56269;51.738;21.652;2023-05-24T09:49:40;27.58;51.80
69162;DHT22;56269;51.738;21.652;2023-05-24T09:52:06;27.29;51.41
69162;DHT22;56269;51.738;21.652;2023-05-24T09:54:32;26.89;52.16
69162;DHT22;56269;51.738;21.652;2023-05-24T09:57:00;27.17;52.67
69162;DHT22;56269;51.738;21.652;2023-05-24T09:59:27;26.89;52.00
69162;DHT22;56269;51.738;21.652;2023-05-24T10:02:01;26.86;53.53
69162;DHT22;56269;51.738;21.652;2023-05-24T10:04:32;27.17;52.58
69162;DHT22;56269;51.738;21.652;2023-05-24T10:06:59;27.58;51.48
69162;DHT22;56269;51.738;21.652;2023-05-24T10:09:28;27.81;51.54
69162;DHT22;56269;51.738;21.652;2023-05-24T10:12:03;27.47;50.52
69162;DHT22;56269;51.738;21.652;2023-05-24T10:14:33;27.85;51.01
69162;DHT22;56269;51.738;21.652;2023-05-24T10:17:05;27.82;49.78
69162;DHT22;56269;51.738;21.652;2023-05-24T10:19:35;27.97;48.66
69162;DHT22;56269;51.738;21.652;2023-05-24T10:22:06;28.24;51.95
69162;DHT22;56269;51.738;21.652;2023-05-24T10:24:44;28.14;50.43
69162;DHT22;56269;51.738;21.652;2023-05-24T10:27:21;27.73;51.48
69162;DHT22;56269;51.738;21.652;2023-05-24T10:30:13;27.65;49.26
69162;DHT22;56269;51.738;21.652;2023-05-24T10:32:41;27.97;49.29
69162;DHT22;56269;51.738;21.652;2023-05-24T10:35:08;28.16;50.86
69162;DHT22;56269;51.738;21.652;2023-05-24T10:37:37;28.29;48.74
69162;DHT22;56269;51.738;21.652;2023-05-24T10:40:04;27.77;51.23
69162;DHT22;56269;51.738;21.652;2023-05-24T10:42:35;27.80;50.74
69162;DHT22;56269;51.738;21.652;2023-05-24T10:47:46;27.64;49.04
69162;DHT22;56269;51.738;21.652;2023-05-24T10:50:19;28.09;48.80
69162;DHT22;56269;51.738;21.652;2023-05-24T10:52:50;28.51;48.40
69162;DHT22;56269;51.738;21.652;2023-05-24T10:55:18;28.69;50.48
69162;DHT22;56269;51.738;21.652;2023-05-24T10:57:44;28.18;47.76
69162;DHT22;56269;51.738;21.652;2023-05-24T11:03:07;28.97;48.82
69162;DHT22;56269;51.738;21.652;2023-05-24T11:05:55;28.76;47.24
69162;DHT22;56269;51.738;21.652;2023-05-24T11:11:20;27.88;49.70
69162;DHT22;56269;51.738;21.652;2023-05-24T11:13:54;28.18;49.35
69162;DHT22;56269;51.738;21.652;2023-05-24T11:16:36;28.08;49.55
69162;DHT22;56269;51.738;21.652;2023-05-24T11:19:16;28.33;47.92
69162;DHT22;56269;51.738;21.652;2023-05-24T11:21:44;27.63;48.44
69162;DHT22;56269;51.738;21.652;2023-05-24T11:24:11;26.83;50.26
69162;DHT22;56269;51.738;21.652;2023-05-24T11:26:38;26.31;51.27
69162;DHT22;56269;51.738;21.652;2023-05-24T11:29:05;26.52;53.50
69162;DHT22;56269;51.738;21.652;2023-05-24T11:31:31;27.10;51.34
69162;DHT22;56269;51.738;21.652;2023-05-24T11:33:59;26.51;51.78
69162;DHT22;56269;51.738;21.652;2023-05-24T11:36:26;25.84;54.17
69162;DHT22;56269;51.738;21.652;2023-05-24T11:38:53;25.20;55.49
69162;DHT22;56269;51.738;21.652;2023-05-24T11:41:19;24.82;57.24
69162;DHT22;56269;51.738;21.652;2023-05-24T11:43:47;24.37;57.08
69162;DHT22;56269;51.738;21.652;2023-05-24T11:46:14;24.28;60.15
69162;DHT22;56269;51.738;21.652;2023-05-24T11:48:40;24.03;58.19
69162;DHT22;56269;51.738;21.652;2023-05-24T11:51:06;23.95;60.86
69162;DHT22;56269;51.738;21.652;2023-05-24T11:53:33;23.85;61.33
69162;DHT22;56269;51.738;21.652;2023-05-24T11:55:59;23.70;59.91
69162;DHT22;56269;51.738;21.652;2023-05-24T11:58:41;23.66;62.33
69162;DHT22;56269;51.738;21.652;2023-05-24T12:01:25;23.70;61.06
69162;DHT22;56269;51.738;21.652;2023-05-24T12:03:53;23.83;60.82
69162;DHT22;56269;51.738;21.652;2023-05-24T12:06:19;23.92;62.40
69162;DHT22;56269;51.738;21.652;2023-05-24T12:08:47;23.90;61.13
69162;DHT22;56269;51.738;21.652;2023-05-24T12:11:15;23.99;61.41
69162;DHT22;56269;51.738;21.652;2023-05-24T12:13:42;24.06;62.44
69162;DHT22;56269;51.738;21.652;2023-05-24T12:16:10;24.06;62.25
69162;DHT22;56269;51.738;21.652;2023-05-24T12:18:38;24.02;60.92
69162;DHT22;56269;51.738;21.652;2023-05-24T12:21:09;23.90;60.34
69162;DHT22;56269;51.738;21.652;2023-05-24T12:23:36;23.73;60.71
69162;DHT22;56269;51.738;21.652;2023-05-24T12:26:04;23.67;63.52
69162;DHT22;56269;51.738;21.652;2023-05-24T12:28:34;23.58;61.11
69162;DHT22;56269;51.738;21.652;2023-05-24T12:31:02;23.45;63.06
69162;DHT22;56269;51.738;21.652;2023-05-24T12:33:29;23.25;64.03
69162;DHT22;56269;51.738;21.652;2023-05-24T12:35:56;23.14;64.17
69162;DHT22;56269;51.738;21.652;2023-05-24T12:38:24;22.97;63.85
69162;DHT22;56269;51.738;21.652;2023-05-24T12:40:51;22.97;64.84
69162;DHT22;56269;51.738;21.652;2023-05-24T12:43:19;23.04;66.08
69162;DHT22;56269;51.738;21.652;2023-05-24T12:45:45;23.04;67.26
69162;DHT22;56269;51.738;21.652;2023-05-24T12:48:12;22.97;67.76
69162;DHT22;56269;51.738;21.652;2023-05-24T12:50:38;22.95;67.77
69162;DHT22;56269;51.738;21.652;2023-05-24T12:53:04;22.98;66.78
69162;DHT22;56269;51.738;21.652;2023-05-24T12:55:31;23.00;66.38
69162;DHT22;56269;51.738;21.652;2023-05-24T12:57:57;23.04;67.43
69162;DHT22;56269;51.738;21.652;2023-05-24T13:00:27;23.11;65.70
69162;DHT22;56269;51.738;21.652;2023-05-24T13:02:55;23.12;67.41
69162;DHT22;56269;51.738;21.652;2023-05-24T13:05:24;23.01;65.69
69162;DHT22;56269;51.738;21.652;2023-05-24T13:07:51;22.97;71.09
69162;DHT22;56269;51.738;21.652;2023-05-24T13:10:18;23.04;67.08
69162;DHT22;56269;51.738;21.652;2023-05-24T13:12:45;22.94;69.49
69162;DHT22;56269;51.738;21.652;2023-05-24T13:15:11;22.95;69.81
69162;DHT22;56269;51.738;21.652;2023-05-24T13:17:40;22.95;70.67
69162;DHT22;56269;51.738;21.652;2023-05-24T13:20:07;22.90;70.48
69162;DHT22;56269;51.738;21.652;2023-05-24T13:22:38;22.90;69.80
69162;DHT22;56269;51.738;21.652;2023-05-24T13:25:05;22.88;68.91
69162;DHT22;56269;51.738;21.652;2023-05-24T13:27:33;22.87;70.14
69162;DHT22;56269;51.738;21.652;2023-05-24T13:29:59;22.68;69.76
69162;DHT22;56269;51.738;21.652;2023-05-24T13:32:26;22.56;70.62
69162;DHT22;56269;51.738;21.652;2023-05-24T13:34:52;22.32;72.42
69162;DHT22;56269;51.738;21.652;2023-05-24T13:37:18;22.12;73.61
69162;DHT22;56269;51.738;21.652;2023-05-24T13:39:44;21.95;75.81
69162;DHT22;56269;51.738;21.652;2023-05-24T13:42:11;21.81;74.93
69162;DHT22;56269;51.738;21.652;2023-05-24T13:44:37;21.62;75.38
69162;DHT22;56269;51.738;21.652;2023-05-24T13:47:04;21.50;77.95
69162;DHT22;56269;51.738;21.652;2023-05-24T13:49:30;21.26;76.30
69162;DHT22;56269;51.738;21.652;2023-05-24T13:51:56;20.90;78.01
69162;DHT22;56269;51.738;21.652;2023-05-24T13:54:22;20.76;79.75
69162;DHT22;56269;51.738;21.652;2023-05-24T13:56:49;20.68;81.91
69162;DHT22;56269;51.738;21.652;2023-05-24T13:59:15;20.48;82.33
69162;DHT22;56269;51.738;21.652;2023-05-24T14:01:43;20.22;82.60
69162;DHT22;56269;51.738;21.652;2023-05-24T14:04:10;20.08;83.11
69162;DHT22;56269;51.738;21.652;2023-05-24T14:06:36;20.01;81.21
69162;DHT22;56269;51.738;21.652;2023-05-24T14:09:03;19.85;82.01
69162;DHT22;56269;51.738;21.652;2023-05-24T14:11:33;19.74;79.53
69162;DHT22;56269;51.738;21.652;2023-05-24T14:14:00;19.66;81.11
69162;DHT22;56269;51.738;21.652;2023-05-24T14:16:27;19.57;81.05
69162;DHT22;56269;51.738;21.652;2023-05-24T14:18:54;19.47;79.94
69162;DHT22;56269;51.738;21.652;2023-05-24T14:21:20;19.51;81.25
69162;DHT22;56269;51.738;21.652;2023-05-24T14:23:48;19.46;80.65
69162;DHT22;56269;51.738;21.652;2023-05-24T14:26:15;19.43;80.27
69162;DHT22;56269;51.738;21.652;2023-05-24T14:28:43;19.43;82.65
69162;DHT22;56269;51.738;21.652;2023-05-24T14:31:10;19.34;82.29
69162;DHT22;56269;51.738;21.652;2023-05-24T14:33:36;19.36;81.49
69162;DHT22;56269;51.738;21.652;2023-05-24T14:36:03;19.33;80.72
69162;DHT22;56269;51.738;21.652;2023-05-24T14:38:29;19.36;81.74
69162;DHT22;56269;51.738;21.652;2023-05-24T14:40:56;19.30;82.88
69162;DHT22;56269;51.738;21.652;2023-05-24T14:43:23;19.24;82.06
69162;DHT22;56269;51.738;21.652;2023-05-24T14:45:49;19.26;82.33
69162;DHT22;56269;51.738;21.652;2023-05-24T14:48:15;19.39;80.50
69162;DHT22;56269;51.738;21.652;2023-05-24T14:50:42;19.59;80.06
69162;DHT22;56269;51.738;21.652;2023-05-24T14:53:08;19.77;78.47
69162;DHT22;56269;51.738;21.652;2023-05-24T14:55:37;19.98;79.06
69162;DHT22;56269;51.738;21.652;2023-05-24T14:58:05;20.28;78.16
69162;DHT22;56269;51.738;21.652;2023-05-24T15:00:34;20.56;75.56
69162;DHT22;56269;51.738;21.652;2023-05-24T15:03:01;20.96;75.74
69162;DHT22;56269;51.738;21.652;2023-05-24T15:05:27;21.31;72.85
69162;DHT22;56269;51.738;21.652;2023-05-24T15:07:54;21.93;74.65
69162;DHT22;56269;51.738;21.652;2023-05-24T15:10:20;22.39;70.63
69162;DHT22;56269;51.738;21.652;2023-05-24T15:12:46;22.84;71.26
69162;DHT22;56269;51.738;21.652;2023-05-24T15:15:13;22.66;69.85
69162;DHT22;56269;51.738;21.652;2023-05-24T15:17:39;22.80;69.01
69162;DHT22;56269;51.738;21.652;2023-05-24T15:20:06;22.57;67.86
69162;DHT22;56269;51.738;21.652;2023-05-24T15:22:33;22.33;68.31
69162;DHT22;56269;51.738;21.652;2023-05-24T15:25:00;22.16;69.89
69162;DHT22;56269;51.738;21.652;2023-05-24T15:27:26;21.93;70.47
69162;DHT22;56269;51.738;21.652;2023-05-24T15:29:52;21.79;70.01
69162;DHT22;56269;51.738;21.652;2023-05-24T15:32:24;21.66;73.25
69162;DHT22;56269;51.738;21.652;2023-05-24T15:34:50;21.58;75.97
69162;DHT22;56269;51.738;21.652;2023-05-24T15:37:17;21.51;73.85
69162;DHT22;56269;51.738;21.652;2023-05-24T15:39:45;21.44;74.50